sensor_id;sensor_type;location;lat;lon;timestamp;temperature;humidity
9984;DHT22;16737;50.932;6.780;2023-07-30T00:02:15;20.80;99.90
9984;DHT22;16737;50.932;6.780;2023-07-30T00:04:44;20.70;99.90
9984;DHT22;16737;50.932;6.780;2023-07-30T00:07:12;20.70;99.90
9984;DHT22;16737;50.932;6.780;2023-07-30T00:09:40;20.70;99.90
9984;DHT22;16737;50.932;6.780;2023-07-30T00:12:08;20.70;99.90
9984;DHT22;16737;50.932;6.780;2023-07-30T00:14:36;20.70;99.90
9984;DHT22;16737;50.932;6.780;2023-07-30T00:17:03;20.70;99.90
9984;DHT22;16737;50.932;6.780;2023-07-30T00:19:31;20.60;99.90
9984;DHT22;16737;50.932;6.780;2023-07-30T00:22:01;20.60;99.90
9984;DHT22;16737;50.932;6.780;2023-07-30T00:24:28;20.60;99.90
9984;DHT22;16737;50.932;6.780;2023-07-30T00:26:55;20.60;99.90
9984;DHT22;16737;50.932;6.780;2023-07-30T00:29:22;20.60;99.90
9984;DHT22;16737;50.932;6.780;2023-07-30T00:31:49;20.60;99.90
9984;DHT22;16737;50.932;6.780;2023-07-30T00:34:16;20.50;99.90
9984;DHT22;16737;50.932;6.780;2023-07-30T00:36:43;20.50;99.90
9984;DHT22;16737;50.932;6.780;2023-07-30T00:39:11;20.50;99.90
9984;DHT22;16737;50.932;6.780;2023-07-30T00:41:38;20.50;99.90
9984;DHT22;16737;50.932;6.780;2023-07-30T00:44:05;20.40;99.90
9984;DHT22;16737;50.932;6.780;2023-07-30T00:46:32;20.40;99.90
9984;DHT22;16737;50.932;6.780;2023-07-30T00:49:01;20.40;99.90
9984;DHT22;16737;50.932;6.780;2023-07-30T00:51:30;20.40;99.90
9984;DHT22;16737;50.932;6.780;2023-07-30T00:53:58;20.40;99.90
9984;DHT22;16737;50.932;6.780;2023-07-30T00:56:27;20.40;99.90
9984;DHT22;16737;50.932;6.780;2023-07-30T00:58:55;20.30;99.90
9984;DHT22;16737;50.932;6.780;2023-07-30T01:01:22;20.30;99.90
9984;DHT22;16737;50.932;6.780;2023-07-30T01:03:50;20.30;99.90
9984;DHT22;16737;50.932;6.780;2023-07-30T01:06:17;20.30;99.90
9984;DHT22;16737;50.932;6.780;2023-07-30T01:08:45;20.30;99.90
9984;DHT22;16737;50.932;6.780;2023-07-30T01:11:13;20.30;99.90
9984;DHT22;16737;50.932;6.780;2023-07-30T01:13:42;20.20;99.90
9984;DHT22;16737;50.932;6.780;2023-07-30T01:16:10;20.30;99.90
9984;DHT22;16737;50.932;6.780;2023-07-30T01:18:40;20.20;99.90
9984;DHT22;16737;50.932;6.780;2023-07-30T01:21:10;20.20;99.90
9984;DHT22;16737;50.932;6.780;2023-07-30T01:23:37;20.20;99.90
9984;DHT22;16737;50.932;6.780;2023-07-30T01:26:08;20.20;99.90
9984;DHT22;16737;50.932;6.780;2023-07-30T01:28:42;20.20;99.90
9984;DHT22;16737;50.932;6.780;2023-07-30T01:31:15;20.20;99.90
9984;DHT22;16737;50.932;6.780;2023-07-30T01:33:46;20.20;99.90
9984;DHT22;16737;50.932;6.780;2023-07-30T01:36:20;20.20;99.90
9984;DHT22;16737;50.932;6.780;2023-07-30T01:38:49;20.20;99.90
9984;DHT22;16737;50.932;6.780;2023-07-30T01:41:19;20.20;99.90
9984;DHT22;16737;50.932;6.780;2023-07-30T01:43:46;20.20;99.90
9984;DHT22;16737;50.932;6.780;2023-07-30T01:46:13;20.20;99.90
9984;DHT22;16737;50.932;6.780;2023-07-30T01:48:40;20.20;99.90
9984;DHT22;16737;50.932;6.780;2023-07-30T01:51:07;20.20;99.90
9984;DHT22;16737;50.932;6.780;2023-07-30T01:53:36;20.20;99.90
9984;DHT22;16737;50.932;6.780;2023-07-30T01:56:03;20.20;99.90
9984;DHT22;16737;50.932;6.780;2023-07-30T01:58:30;20.20;99.90
9984;DHT22;16737;50.932;6.780;2023-07-30T02:00:57;20.20;99.90
9984;DHT22;16737;50.932;6.780;2023-07-30T02:03:24;20.20;99.90
9984;DHT22;16737;50.932;6.780;2023-07-30T02:05:51;20.20;99.90
9984;DHT22;16737;50.932;6.780;2023-07-30T02:08:18;20.20;99.90
9984;DHT22;16737;50.932;6.780;2023-07-30T02:10:55;20.20;99.90
9984;DHT22;16737;50.932;6.780;2023-07-30T02:13:23;20.20;99.90
9984;DHT22;16737;50.932;6.780;2023-07-30T02:15:50;20.20;99.90
9984;DHT22;16737;50.932;6.780;2023-07-30T02:18:17;20.20;99.90
9984;DHT22;16737;50.932;6.780;2023-07-30T02:20:44;20.20;99.90
9984;DHT22;16737;50.932;6.780;2023-07-30T02:23:11;20.10;99.90
9984;DHT22;16737;50.932;6.780;2023-07-30T02:25:40;20.20;99.90
9984;DHT22;16737;50.932;6.780;2023-07-30T02:28:09;20.20;99.90
9984;DHT22;16737;50.932;6.780;2023-07-30T02:30:36;20.20;99.90
9984;DHT22;16737;50.932;6.780;2023-07-30T02:33:03;20.20;99.90
9984;DHT22;16737;50.932;6.780;2023-07-30T02:35:30;20.10;99.90
9984;DHT22;16737;50.932;6.780;2023-07-30T02:37:57;20.10;99.90
9984;DHT22;16737;50.932;6.780;2023-07-30T02:40:24;20.20;99.90
9984;DHT22;16737;50.932;6.780;2023-07-30T02:42:51;20.10;99.90
9984;DHT22;16737;50.932;6.780;2023-07-30T02:45:20;20.10;99.90
9984;DHT22;16737;50.932;6.780;2023-07-30T02:47:47;20.10;99.90
9984;DHT22;16737;50.932;6.780;2023-07-30T02:50:14;20.10;99.90
9984;DHT22;16737;50.932;6.780;2023-07-30T02:52:41;20.10;99.90
9984;DHT22;16737;50.932;6.780;2023-07-30T02:55:08;20.10;99.90
9984;DHT22;16737;50.932;6.780;2023-07-30T02:57:35;20.10;99.80
9984;DHT22;16737;50.932;6.780;2023-07-30T03:00:03;20.00;99.80
9984;DHT22;16737;50.932;6.780;2023-07-30T03:02:32;20.00;99.80
9984;DHT22;16737;50.932;6.780;2023-07-30T03:04:59;20.00;99.80
9984;DHT22;16737;50.932;6.780;2023-07-30T03:07:27;20.00;99.80
9984;DHT22;16737;50.932;6.780;2023-07-30T03:09:54;20.00;99.80
9984;DHT22;16737;50.932;6.780;2023-07-30T03:12:21;20.00;99.80
9984;DHT22;16737;50.932;6.780;2023-07-30T03:14:50;20.00;99.80
9984;DHT22;16737;50.932;6.780;2023-07-30T03:17:17;20.00;99.80
9984;DHT22;16737;50.932;6.780;2023-07-30T03:19:46;19.90;99.70
9984;DHT22;16737;50.932;6.780;2023-07-30T03:22:13;19.90;99.80
9984;DHT22;16737;50.932;6.780;2023-07-30T03:24:41;19.90;99.80
9984;DHT22;16737;50.932;6.780;2023-07-30T03:27:08;19.90;99.80
9984;DHT22;16737;50.932;6.780;2023-07-30T03:29:35;19.90;99.70
9984;DHT22;16737;50.932;6.780;2023-07-30T03:32:02;19.90;99.70
9984;DHT22;16737;50.932;6.780;2023-07-30T03:34:29;19.90;99.60
9984;DHT22;16737;50.932;6.780;2023-07-30T03:36:57;19.90;99.60
9984;DHT22;16737;50.932;6.780;2023-07-30T03:39:25;19.90;99.60
9984;DHT22;16737;50.932;6.780;2023-07-30T03:41:52;19.90;99.60
9984;DHT22;16737;50.932;6.780;2023-07-30T03:44:19;19.80;99.60
9984;DHT22;16737;50.932;6.780;2023-07-30T03:46:48;19.80;99.50
9984;DHT22;16737;50.932;6.780;2023-07-30T03:49:15;19.80;99.60
9984;DHT22;16737;50.932;6.780;2023-07-30T03:51:42;19.80;99.60
9984;DHT22;16737;50.932;6.780;2023-07-30T03:54:11;19.80;99.60
9984;DHT22;16737;50.932;6.780;2023-07-30T03:56:38;19.80;99.60
9984;DHT22;16737;50.932;6.780;2023-07-30T03:59:05;19.80;99.60
9984;DHT22;16737;50.932;6.780;2023-07-30T04:01:32;19.80;99.60
9984;DHT22;16737;50.932;6.780;2023-07-30T04:03:59;19.80;99.60
9984;DHT22;16737;50.932;6.780;2023-07-30T04:06:26;19.80;99.60
9984;DHT22;16737;50.932;6.780;2023-07-30T04:08:53;19.80;99.60
9984;DHT22;16737;50.932;6.780;2023-07-30T04:11:21;19.80;99.60
9984;DHT22;16737;50.932;6.780;2023-07-30T04:13:48;19.80;99.70
9984;DHT22;16737;50.932;6.780;2023-07-30T04:16:15;19.80;99.70
9984;DHT22;16737;50.932;6.780;2023-07-30T04:18:42;19.80;99.70
9984;DHT22;16737;50.932;6.780;2023-07-30T04:21:09;19.70;99.60
9984;DHT22;16737;50.932;6.780;2023-07-30T04:23:36;19.80;99.70
9984;DHT22;16737;50.932;6.780;2023-07-30T04:26:03;19.70;99.70
9984;DHT22;16737;50.932;6.780;2023-07-30T04:28:31;19.80;99.80
9984;DHT22;16737;50.932;6.780;2023-07-30T04:30:58;19.80;99.80
9984;DHT22;16737;50.932;6.780;2023-07-30T04:33:25;19.80;99.80
9984;DHT22;16737;50.932;6.780;2023-07-30T04:35:53;19.80;99.80
9984;DHT22;16737;50.932;6.780;2023-07-30T04:38:22;19.80;99.70
9984;DHT22;16737;50.932;6.780;2023-07-30T04:40:50;19.80;99.70
9984;DHT22;16737;50.932;6.780;2023-07-30T04:43:16;19.80;99.60
9984;DHT22;16737;50.932;6.780;2023-07-30T04:45:45;19.80;99.60
9984;DHT22;16737;50.932;6.780;2023-07-30T04:48:11;19.80;99.50
9984;DHT22;16737;50.932;6.780;2023-07-30T04:50:38;19.70;99.40
9984;DHT22;16737;50.932;6.780;2023-07-30T04:53:07;19.70;99.40
9984;DHT22;16737;50.932;6.780;2023-07-30T04:55:35;19.70;99.30
9984;DHT22;16737;50.932;6.780;2023-07-30T04:58:01;19.70;99.20
9984;DHT22;16737;50.932;6.780;2023-07-30T05:00:29;19.70;99.20
9984;DHT22;16737;50.932;6.780;2023-07-30T05:02:57;19.70;99.10
9984;DHT22;16737;50.932;6.780;2023-07-30T05:05:24;19.70;99.10
9984;DHT22;16737;50.932;6.780;2023-07-30T05:07:51;19.70;99.10
9984;DHT22;16737;50.932;6.780;2023-07-30T05:10:18;19.60;99.00
9984;DHT22;16737;50.932;6.780;2023-07-30T05:12:46;19.70;99.10
9984;DHT22;16737;50.932;6.780;2023-07-30T05:15:13;19.60;98.90
9984;DHT22;16737;50.932;6.780;2023-07-30T05:17:40;19.60;98.90
9984;DHT22;16737;50.932;6.780;2023-07-30T05:20:09;19.60;98.80
9984;DHT22;16737;50.932;6.780;2023-07-30T05:22:37;19.60;98.70
9984;DHT22;16737;50.932;6.780;2023-07-30T05:25:05;19.50;98.70
9984;DHT22;16737;50.932;6.780;2023-07-30T05:27:32;19.50;98.70
9984;DHT22;16737;50.932;6.780;2023-07-30T05:29:59;19.50;98.80
9984;DHT22;16737;50.932;6.780;2023-07-30T05:32:26;19.50;98.80
9984;DHT22;16737;50.932;6.780;2023-07-30T05:34:54;19.40;98.70
9984;DHT22;16737;50.932;6.780;2023-07-30T05:37:22;19.40;98.70
9984;DHT22;16737;50.932;6.780;2023-07-30T05:39:49;19.40;98.70
9984;DHT22;16737;50.932;6.780;2023-07-30T05:42:16;19.40;98.70
9984;DHT22;16737;50.932;6.780;2023-07-30T05:44:43;19.40;98.70
9984;DHT22;16737;50.932;6.780;2023-07-30T05:47:10;19.40;98.70
9984;DHT22;16737;50.932;6.780;2023-07-30T05:49:37;19.40;98.70
9984;DHT22;16737;50.932;6.780;2023-07-30T05:52:05;19.40;98.70
9984;DHT22;16737;50.932;6.780;2023-07-30T05:54:33;19.40;98.70
9984;DHT22;16737;50.932;6.780;2023-07-30T05:57:00;19.40;98.70
9984;DHT22;16737;50.932;6.780;2023-07-30T05:59:27;19.40;98.80
9984;DHT22;16737;50.932;6.780;2023-07-30T06:01:56;19.40;98.80
9984;DHT22;16737;50.932;6.780;2023-07-30T06:04:23;19.40;98.80
9984;DHT22;16737;50.932;6.780;2023-07-30T06:06:50;19.40;98.90
9984;DHT22;16737;50.932;6.780;2023-07-30T06:09:17;19.40;98.90
9984;DHT22;16737;50.932;6.780;2023-07-30T06:11:46;19.40;98.90
9984;DHT22;16737;50.932;6.780;2023-07-30T06:14:13;19.40;98.80
9984;DHT22;16737;50.932;6.780;2023-07-30T06:16:39;19.50;98.90
9984;DHT22;16737;50.932;6.780;2023-07-30T06:19:08;19.50;98.90
9984;DHT22;16737;50.932;6.780;2023-07-30T06:21:35;19.50;98.80
9984;DHT22;16737;50.932;6.780;2023-07-30T06:24:02;19.50;98.80
9984;DHT22;16737;50.932;6.780;2023-07-30T06:26:29;19.50;98.90
9984;DHT22;16737;50.932;6.780;2023-07-30T06:28:58;19.50;98.80
9984;DHT22;16737;50.932;6.780;2023-07-30T06:31:28;19.50;98.80
9984;DHT22;16737;50.932;6.780;2023-07-30T06:33:55;19.50;98.80
9984;DHT22;16737;50.932;6.780;2023-07-30T06:36:22;19.60;98.80
9984;DHT22;16737;50.932;6.780;2023-07-30T06:38:49;19.60;98.70
9984;DHT22;16737;50.932;6.780;2023-07-30T06:41:16;19.60;98.70
9984;DHT22;16737;50.932;6.780;2023-07-30T06:43:43;19.50;98.60
9984;DHT22;16737;50.932;6.780;2023-07-30T06:46:11;19.60;98.60
9984;DHT22;16737;50.932;6.780;2023-07-30T06:48:38;19.60;98.50
9984;DHT22;16737;50.932;6.780;2023-07-30T06:51:06;19.60;98.50
9984;DHT22;16737;50.932;6.780;2023-07-30T06:53:34;19.60;98.50
9984;DHT22;16737;50.932;6.780;2023-07-30T06:56:01;19.60;98.50
9984;DHT22;16737;50.932;6.780;2023-07-30T06:58:28;19.60;98.50
9984;DHT22;16737;50.932;6.780;2023-07-30T07:00:55;19.60;98.50
9984;DHT22;16737;50.932;6.780;2023-07-30T07:03:24;19.70;98.50
9984;DHT22;16737;50.932;6.780;2023-07-30T07:05:54;19.70;98.40
9984;DHT22;16737;50.932;6.780;2023-07-30T07:08:21;19.70;98.20
9984;DHT22;16737;50.932;6.780;2023-07-30T07:10:49;19.70;98.30
9984;DHT22;16737;50.932;6.780;2023-07-30T07:13:16;19.70;98.20
9984;DHT22;16737;50.932;6.780;2023-07-30T07:15:43;19.70;98.20
9984;DHT22;16737;50.932;6.780;2023-07-30T07:18:11;19.70;98.20
9984;DHT22;16737;50.932;6.780;2023-07-30T07:20:39;19.80;98.20
9984;DHT22;16737;50.932;6.780;2023-07-30T07:23:06;19.70;98.20
9984;DHT22;16737;50.932;6.780;2023-07-30T07:25:33;19.80;98.30
9984;DHT22;16737;50.932;6.780;2023-07-30T07:28:00;19.80;98.20
9984;DHT22;16737;50.932;6.780;2023-07-30T07:30:27;19.70;98.30
9984;DHT22;16737;50.932;6.780;2023-07-30T07:32:57;19.80;98.40
9984;DHT22;16737;50.932;6.780;2023-07-30T07:35:24;19.80;98.40
9984;DHT22;16737;50.932;6.780;2023-07-30T07:37:53;19.80;98.40
9984;DHT22;16737;50.932;6.780;2023-07-30T07:40:20;19.90;98.40
9984;DHT22;16737;50.932;6.780;2023-07-30T07:42:47;19.90;98.40
9984;DHT22;16737;50.932;6.780;2023-07-30T07:45:14;19.90;98.30
9984;DHT22;16737;50.932;6.780;2023-07-30T07:47:42;20.00;98.30
9984;DHT22;16737;50.932;6.780;2023-07-30T07:50:09;20.00;98.40
9984;DHT22;16737;50.932;6.780;2023-07-30T07:52:36;20.00;98.30
9984;DHT22;16737;50.932;6.780;2023-07-30T07:55:06;20.10;98.40
9984;DHT22;16737;50.932;6.780;2023-07-30T07:57:38;20.10;98.30
9984;DHT22;16737;50.932;6.780;2023-07-30T08:00:08;20.10;98.30
9984;DHT22;16737;50.932;6.780;2023-07-30T08:02:36;20.10;98.20
9984;DHT22;16737;50.932;6.780;2023-07-30T08:05:03;20.10;98.20
9984;DHT22;16737;50.932;6.780;2023-07-30T08:07:30;20.20;98.20
9984;DHT22;16737;50.932;6.780;2023-07-30T08:09:57;20.10;98.20
9984;DHT22;16737;50.932;6.780;2023-07-30T08:12:25;20.20;98.20
9984;DHT22;16737;50.932;6.780;2023-07-30T08:14:53;20.20;98.20
9984;DHT22;16737;50.932;6.780;2023-07-30T08:17:21;20.20;98.20
9984;DHT22;16737;50.932;6.780;2023-07-30T08:19:48;20.20;98.20
9984;DHT22;16737;50.932;6.780;2023-07-30T08:22:15;20.20;98.20
9984;DHT22;16737;50.932;6.780;2023-07-30T08:24:42;20.30;98.20
9984;DHT22;16737;50.932;6.780;2023-07-30T08:27:09;20.30;98.20
9984;DHT22;16737;50.932;6.780;2023-07-30T08:29:37;20.30;98.10
9984;DHT22;16737;50.932;6.780;2023-07-30T08:32:05;20.30;98.00
9984;DHT22;16737;50.932;6.780;2023-07-30T08:34:32;20.30;98.00
9984;DHT22;16737;50.932;6.780;2023-07-30T08:36:59;20.30;98.00
9984;DHT22;16737;50.932;6.780;2023-07-30T08:39:26;20.30;98.10
9984;DHT22;16737;50.932;6.780;2023-07-30T08:41:53;20.30;98.10
9984;DHT22;16737;50.932;6.780;2023-07-30T08:44:20;20.30;98.10
9984;DHT22;16737;50.932;6.780;2023-07-30T08:46:49;20.30;98.20
9984;DHT22;16737;50.932;6.780;2023-07-30T08:49:16;20.30;98.30
9984;DHT22;16737;50.932;6.780;2023-07-30T08:51:44;20.40;98.40
9984;DHT22;16737;50.932;6.780;2023-07-30T08:54:15;20.40;98.30
9984;DHT22;16737;50.932;6.780;2023-07-30T08:56:43;20.50;98.20
9984;DHT22;16737;50.932;6.780;2023-07-30T08:59:11;20.50;98.20
9984;DHT22;16737;50.932;6.780;2023-07-30T09:01:43;20.60;98.10
9984;DHT22;16737;50.932;6.780;2023-07-30T09:04:15;20.60;97.90
9984;DHT22;16737;50.932;6.780;2023-07-30T09:06:47;20.70;98.00
9984;DHT22;16737;50.932;6.780;2023-07-30T09:09:14;20.70;98.00
9984;DHT22;16737;50.932;6.780;2023-07-30T09:11:42;20.70;97.80
9984;DHT22;16737;50.932;6.780;2023-07-30T09:14:09;20.80;97.90
9984;DHT22;16737;50.932;6.780;2023-07-30T09:16:36;20.80;97.90
9984;DHT22;16737;50.932;6.780;2023-07-30T09:19:06;20.80;97.80
9984;DHT22;16737;50.932;6.780;2023-07-30T09:21:35;20.80;97.60
9984;DHT22;16737;50.932;6.780;2023-07-30T09:24:03;20.90;97.70
9984;DHT22;16737;50.932;6.780;2023-07-30T09:26:41;20.90;97.60
9984;DHT22;16737;50.932;6.780;2023-07-30T09:29:09;20.90;97.30
9984;DHT22;16737;50.932;6.780;2023-07-30T09:31:46;20.90;97.50
9984;DHT22;16737;50.932;6.780;2023-07-30T09:34:20;21.00;97.40
9984;DHT22;16737;50.932;6.780;2023-07-30T09:36:51;21.00;97.40
9984;DHT22;16737;50.932;6.780;2023-07-30T09:39:21;21.00;97.50
9984;DHT22;16737;50.932;6.780;2023-07-30T09:41:50;21.00;97.60
9984;DHT22;16737;50.932;6.780;2023-07-30T09:44:19;21.10;97.80
9984;DHT22;16737;50.932;6.780;2023-07-30T09:46:49;21.20;97.80
9984;DHT22;16737;50.932;6.780;2023-07-30T09:49:17;21.30;97.60
9984;DHT22;16737;50.932;6.780;2023-07-30T09:51:45;21.30;97.50
9984;DHT22;16737;50.932;6.780;2023-07-30T09:54:14;21.40;97.40
9984;DHT22;16737;50.932;6.780;2023-07-30T09:56:42;21.50;97.20
9984;DHT22;16737;50.932;6.780;2023-07-30T09:59:09;21.50;97.20
9984;DHT22;16737;50.932;6.780;2023-07-30T10:01:40;21.50;97.00
9984;DHT22;16737;50.932;6.780;2023-07-30T10:04:11;21.60;96.90
9984;DHT22;16737;50.932;6.780;2023-07-30T10:06:41;21.60;96.90
9984;DHT22;16737;50.932;6.780;2023-07-30T10:09:12;21.60;96.80
9984;DHT22;16737;50.932;6.780;2023-07-30T10:11:45;21.70;96.90
9984;DHT22;16737;50.932;6.780;2023-07-30T10:14:15;21.70;96.70
9984;DHT22;16737;50.932;6.780;2023-07-30T10:16:50;21.80;96.70
9984;DHT22;16737;50.932;6.780;2023-07-30T10:19:22;21.90;97.00
9984;DHT22;16737;50.932;6.780;2023-07-30T10:21:50;21.90;96.60
9984;DHT22;16737;50.932;6.780;2023-07-30T10:24:19;22.00;96.70
9984;DHT22;16737;50.932;6.780;2023-07-30T10:26:46;22.00;96.60
9984;DHT22;16737;50.932;6.780;2023-07-30T10:29:15;22.10;96.60
9984;DHT22;16737;50.932;6.780;2023-07-30T10:31:47;22.20;96.70
9984;DHT22;16737;50.932;6.780;2023-07-30T10:34:15;22.20;96.60
9984;DHT22;16737;50.932;6.780;2023-07-30T10:36:44;22.30;96.70
9984;DHT22;16737;50.932;6.780;2023-07-30T10:39:16;22.40;96.50
9984;DHT22;16737;50.932;6.780;2023-07-30T10:41:48;22.50;96.40
9984;DHT22;16737;50.932;6.780;2023-07-30T10:44:24;22.50;96.10
9984;DHT22;16737;50.932;6.780;2023-07-30T10:46:52;22.60;95.80
9984;DHT22;16737;50.932;6.780;2023-07-30T10:49:20;22.60;96.10
9984;DHT22;16737;50.932;6.780;2023-07-30T10:51:48;22.70;96.10
9984;DHT22;16737;50.932;6.780;2023-07-30T10:54:15;22.80;95.80
9984;DHT22;16737;50.932;6.780;2023-07-30T10:56:44;22.80;95.60
9984;DHT22;16737;50.932;6.780;2023-07-30T10:59:13;22.90;95.30
9984;DHT22;16737;50.932;6.780;2023-07-30T11:01:42;22.90;95.30
9984;DHT22;16737;50.932;6.780;2023-07-30T11:04:12;23.00;95.30
9984;DHT22;16737;50.932;6.780;2023-07-30T11:06:45;23.00;95.60
9984;DHT22;16737;50.932;6.780;2023-07-30T11:09:18;23.00;94.90
9984;DHT22;16737;50.932;6.780;2023-07-30T11:11:48;23.10;94.80
9984;DHT22;16737;50.932;6.780;2023-07-30T11:14:17;23.20;94.90
9984;DHT22;16737;50.932;6.780;2023-07-30T11:16:49;23.20;94.90
9984;DHT22;16737;50.932;6.780;2023-07-30T11:19:17;23.30;94.50
9984;DHT22;16737;50.932;6.780;2023-07-30T11:21:45;23.30;94.80
9984;DHT22;16737;50.932;6.780;2023-07-30T11:24:12;23.40;94.50
9984;DHT22;16737;50.932;6.780;2023-07-30T11:26:40;23.50;94.30
9984;DHT22;16737;50.932;6.780;2023-07-30T11:29:15;23.50;94.10
9984;DHT22;16737;50.932;6.780;2023-07-30T11:31:43;23.50;93.40
9984;DHT22;16737;50.932;6.780;2023-07-30T11:34:11;23.60;93.90
9984;DHT22;16737;50.932;6.780;2023-07-30T11:36:40;23.50;93.80
9984;DHT22;16737;50.932;6.780;2023-07-30T11:39:10;23.60;93.70
9984;DHT22;16737;50.932;6.780;2023-07-30T11:41:38;23.60;93.60
9984;DHT22;16737;50.932;6.780;2023-07-30T11:44:05;23.60;93.20
9984;DHT22;16737;50.932;6.780;2023-07-30T11:46:33;23.60;93.20
9984;DHT22;16737;50.932;6.780;2023-07-30T11:49:12;23.70;93.00
9984;DHT22;16737;50.932;6.780;2023-07-30T11:51:42;23.70;92.60
9984;DHT22;16737;50.932;6.780;2023-07-30T11:54:19;23.60;92.90
9984;DHT22;16737;50.932;6.780;2023-07-30T11:56:54;23.70;92.40
9984;DHT22;16737;50.932;6.780;2023-07-30T11:59:21;23.60;92.30
9984;DHT22;16737;50.932;6.780;2023-07-30T12:01:50;23.60;92.70
9984;DHT22;16737;50.932;6.780;2023-07-30T12:04:17;23.50;92.40
9984;DHT22;16737;50.932;6.780;2023-07-30T12:06:47;23.50;92.60
9984;DHT22;16737;50.932;6.780;2023-07-30T12:09:20;23.50;92.40
9984;DHT22;16737;50.932;6.780;2023-07-30T12:11:53;23.40;92.20
9984;DHT22;16737;50.932;6.780;2023-07-30T12:14:24;23.40;92.10
9984;DHT22;16737;50.932;6.780;2023-07-30T12:16:57;23.30;92.20
9984;DHT22;16737;50.932;6.780;2023-07-30T12:19:24;23.30;92.10
9984;DHT22;16737;50.932;6.780;2023-07-30T12:21:51;23.30;92.20
9984;DHT22;16737;50.932;6.780;2023-07-30T12:24:18;23.30;92.40
9984;DHT22;16737;50.932;6.780;2023-07-30T12:26:46;23.20;92.40
9984;DHT22;16737;50.932;6.780;2023-07-30T12:29:13;23.20;92.70
9984;DHT22;16737;50.932;6.780;2023-07-30T12:31:40;23.20;93.10
9984;DHT22;16737;50.932;6.780;2023-07-30T12:34:08;23.20;92.90
9984;DHT22;16737;50.932;6.780;2023-07-30T12:36:36;23.20;93.20
9984;DHT22;16737;50.932;6.780;2023-07-30T12:39:04;23.30;93.20
9984;DHT22;16737;50.932;6.780;2023-07-30T12:41:31;23.30;93.20
9984;DHT22;16737;50.932;6.780;2023-07-30T12:43:58;23.40;93.20
9984;DHT22;16737;50.932;6.780;2023-07-30T12:46:25;23.40;93.20
9984;DHT22;16737;50.932;6.780;2023-07-30T12:48:55;23.50;93.00
9984;DHT22;16737;50.932;6.780;2023-07-30T12:51:23;23.50;92.80
9984;DHT22;16737;50.932;6.780;2023-07-30T12:53:50;23.50;92.60
9984;DHT22;16737;50.932;6.780;2023-07-30T12:56:17;23.50;92.70
9984;DHT22;16737;50.932;6.780;2023-07-30T12:58:47;23.50;92.80
9984;DHT22;16737;50.932;6.780;2023-07-30T13:01:14;23.50;92.90
9984;DHT22;16737;50.932;6.780;2023-07-30T13:03:41;23.60;92.90
9984;DHT22;16737;50.932;6.780;2023-07-30T13:06:10;23.60;92.70
9984;DHT22;16737;50.932;6.780;2023-07-30T13:08:39;23.60;92.50
9984;DHT22;16737;50.932;6.780;2023-07-30T13:11:06;23.60;92.40
9984;DHT22;16737;50.932;6.780;2023-07-30T13:13:34;23.70;92.50
9984;DHT22;16737;50.932;6.780;2023-07-30T13:16:00;23.60;92.70
9984;DHT22;16737;50.932;6.780;2023-07-30T13:18:29;23.60;92.40
9984;DHT22;16737;50.932;6.780;2023-07-30T13:20:56;23.60;92.40
9984;DHT22;16737;50.932;6.780;2023-07-30T13:23:23;23.60;92.40
9984;DHT22;16737;50.932;6.780;2023-07-30T13:25:52;23.60;92.50
9984;DHT22;16737;50.932;6.780;2023-07-30T13:28:19;23.60;92.60
9984;DHT22;16737;50.932;6.780;2023-07-30T13:30:46;23.70;92.60
9984;DHT22;16737;50.932;6.780;2023-07-30T13:33:12;23.80;92.60
9984;DHT22;16737;50.932;6.780;2023-07-30T13:35:39;23.80;92.60
9984;DHT22;16737;50.932;6.780;2023-07-30T13:38:06;23.90;92.80
9984;DHT22;16737;50.932;6.780;2023-07-30T13:40:33;24.10;92.70
9984;DHT22;16737;50.932;6.780;2023-07-30T13:43:02;24.20;92.60
9984;DHT22;16737;50.932;6.780;2023-07-30T13:45:29;24.20;92.10
9984;DHT22;16737;50.932;6.780;2023-07-30T13:47:56;24.40;92.00
9984;DHT22;16737;50.932;6.780;2023-07-30T13:50:23;24.40;91.80
9984;DHT22;16737;50.932;6.780;2023-07-30T13:52:50;24.40;91.60
9984;DHT22;16737;50.932;6.780;2023-07-30T13:55:16;24.50;91.50
9984;DHT22;16737;50.932;6.780;2023-07-30T13:57:43;24.50;91.30
9984;DHT22;16737;50.932;6.780;2023-07-30T14:00:13;24.50;91.10
9984;DHT22;16737;50.932;6.780;2023-07-30T14:02:40;24.50;90.70
9984;DHT22;16737;50.932;6.780;2023-07-30T14:05:09;24.50;90.80
9984;DHT22;16737;50.932;6.780;2023-07-30T14:07:37;24.50;90.70
9984;DHT22;16737;50.932;6.780;2023-07-30T14:10:06;24.50;90.50
9984;DHT22;16737;50.932;6.780;2023-07-30T14:12:33;24.50;90.30
9984;DHT22;16737;50.932;6.780;2023-07-30T14:15:01;24.50;90.10
9984;DHT22;16737;50.932;6.780;2023-07-30T14:17:29;24.40;89.80
9984;DHT22;16737;50.932;6.780;2023-07-30T14:19:56;24.50;89.50
9984;DHT22;16737;50.932;6.780;2023-07-30T14:22:23;24.50;89.90
9984;DHT22;16737;50.932;6.780;2023-07-30T14:24:50;24.50;90.00
9984;DHT22;16737;50.932;6.780;2023-07-30T14:27:17;24.40;89.80
9984;DHT22;16737;50.932;6.780;2023-07-30T14:29:44;24.50;89.70
9984;DHT22;16737;50.932;6.780;2023-07-30T14:32:11;24.50;89.40
9984;DHT22;16737;50.932;6.780;2023-07-30T14:34:40;24.50;89.00
9984;DHT22;16737;50.932;6.780;2023-07-30T14:37:07;24.50;88.40
9984;DHT22;16737;50.932;6.780;2023-07-30T14:39:34;24.60;88.60
9984;DHT22;16737;50.932;6.780;2023-07-30T14:42:01;24.50;88.30
9984;DHT22;16737;50.932;6.780;2023-07-30T14:44:28;24.50;88.30
9984;DHT22;16737;50.932;6.780;2023-07-30T14:46:55;24.50;88.30
9984;DHT22;16737;50.932;6.780;2023-07-30T14:49:25;24.40;88.10
9984;DHT22;16737;50.932;6.780;2023-07-30T14:51:53;24.50;88.50
9984;DHT22;16737;50.932;6.780;2023-07-30T14:54:24;24.40;88.10
9984;DHT22;16737;50.932;6.780;2023-07-30T14:56:50;24.50;88.30
9984;DHT22;16737;50.932;6.780;2023-07-30T14:59:17;24.50;88.10
9984;DHT22;16737;50.932;6.780;2023-07-30T15:01:44;24.50;87.90
9984;DHT22;16737;50.932;6.780;2023-07-30T15:04:11;24.50;87.80
9984;DHT22;16737;50.932;6.780;2023-07-30T15:06:38;24.50;87.40
9984;DHT22;16737;50.932;6.780;2023-07-30T15:09:07;24.50;87.40
9984;DHT22;16737;50.932;6.780;2023-07-30T15:11:37;24.50;86.90
9984;DHT22;16737;50.932;6.780;2023-07-30T15:14:04;24.50;86.90
9984;DHT22;16737;50.932;6.780;2023-07-30T15:16:31;24.50;86.60
9984;DHT22;16737;50.932;6.780;2023-07-30T15:18:58;24.50;86.40
9984;DHT22;16737;50.932;6.780;2023-07-30T15:21:26;24.50;86.40
9984;DHT22;16737;50.932;6.780;2023-07-30T15:23:54;24.40;86.30
9984;DHT22;16737;50.932;6.780;2023-07-30T15:26:22;24.50;86.70
9984;DHT22;16737;50.932;6.780;2023-07-30T15:28:52;24.50;86.30
9984;DHT22;16737;50.932;6.780;2023-07-30T15:31:20;24.50;86.60
9984;DHT22;16737;50.932;6.780;2023-07-30T15:33:47;24.50;86.40
9984;DHT22;16737;50.932;6.780;2023-07-30T15:36:14;24.50;86.50
9984;DHT22;16737;50.932;6.780;2023-07-30T15:38:41;24.70;86.90
9984;DHT22;16737;50.932;6.780;2023-07-30T15:41:08;24.70;87.10
9984;DHT22;16737;50.932;6.780;2023-07-30T15:43:36;24.80;86.70
9984;DHT22;16737;50.932;6.780;2023-07-30T15:46:06;24.90;85.80
9984;DHT22;16737;50.932;6.780;2023-07-30T15:48:33;24.90;85.50
9984;DHT22;16737;50.932;6.780;2023-07-30T15:51:00;25.00;85.80